Time;durP1;ratioP1;P1;durP2;ratioP2;P2;SDS_P1;SDS_P2;PMS_P1;PMS_P2;Temp;Humidity;BMP_temperature;BMP_pressure;BME280_temperature;BME280_humidity;BME280_pressure;Samples;Min_cycle;Max_cycle;Signal;HPM_P1;HPM_P2
2023/08/06 00:01:12;;;;;;;1.00;1.00;;;;;;;24.28;97.49;95720.50;5007115;28;20057;-59
2023/08/06 00:03:38;;;;;;;0.90;0.90;;;;;;;24.01;96.90;95697.47;5006065;28;20133;-59
2023/08/06 00:06:06;;;;;;;1.13;1.13;;;;;;;24.48;97.45;95753.75;5007059;28;20058;-60
2023/08/06 00:08:33;;;;;;;1.10;1.10;;;;;;;24.64;96.01;95759.66;5005383;28;20053;-60
2023/08/06 00:10:59;;;;;;;1.02;1.02;;;;;;;24.75;95.08;95765.50;5005447;28;20528;-61
2023/08/06 00:13:26;;;;;;;1.20;1.20;;;;;;;24.86;94.46;95760.00;5006934;28;20623;-60
2023/08/06 00:15:52;;;;;;;1.02;1.02;;;;;;;24.87;93.83;95758.69;5006949;28;20073;-61
2023/08/06 00:18:19;;;;;;;1.10;1.10;;;;;;;24.83;93.82;95755.28;5006474;28;20432;-60
2023/08/06 00:20:46;;;;;;;1.00;1.00;;;;;;;24.55;96.83;95765.44;5006686;28;20508;-61
2023/08/06 00:23:12;;;;;;;1.10;1.10;;;;;;;24.62;96.22;95762.19;5005315;28;20084;-59
2023/08/06 00:25:39;;;;;;;1.10;1.10;;;;;;;24.58;96.38;95761.59;5021887;28;20165;-60
2023/08/06 00:28:06;;;;;;;1.08;1.08;;;;;;;24.49;96.64;95741.91;5007389;28;20058;-59
2023/08/06 00:30:32;;;;;;;1.20;1.20;;;;;;;24.37;98.01;95751.53;5007166;28;20065;-60
2023/08/06 00:32:59;;;;;;;1.10;1.10;;;;;;;24.12;98.23;95718.22;5007358;28;20053;-58
2023/08/06 00:35:25;;;;;;;0.95;0.95;;;;;;;24.49;97.57;95758.91;5006480;28;20447;-59
2023/08/06 00:37:52;;;;;;;1.00;1.00;;;;;;;24.20;97.20;95713.69;5007083;28;20100;-59
2023/08/06 00:40:21;;;;;;;1.02;1.02;;;;;;;24.51;97.10;95745.03;5006564;28;20058;-59
2023/08/06 00:42:47;;;;;;;1.10;1.10;;;;;;;24.49;96.76;95741.91;5006888;28;20515;-59
2023/08/06 00:45:14;;;;;;;1.10;1.10;;;;;;;24.52;97.19;95755.09;5004850;28;20054;-59
2023/08/06 00:47:41;;;;;;;1.20;1.20;;;;;;;24.24;96.90;95722.78;5004935;28;20081;-60
2023/08/06 00:50:08;;;;;;;1.00;1.00;;;;;;;24.58;96.41;95749.53;5004894;28;20652;-60
2023/08/06 00:52:36;;;;;;;1.00;1.00;;;;;;;24.67;95.64;95747.38;5006679;28;20139;-60
2023/08/06 00:55:04;;;;;;;1.10;1.10;;;;;;;24.63;95.86;95745.97;5005797;28;20064;-60
2023/08/06 00:57:31;;;;;;;1.08;1.08;;;;;;;24.56;96.40;95741.53;5004713;28;20072;-59
2023/08/06 00:59:58;;;;;;;1.00;1.00;;;;;;;24.62;95.90;95733.88;5006053;28;20054;-61
2023/08/06 01:02:24;;;;;;;1.00;1.00;;;;;;;24.58;96.22;95730.47;5006001;28;20057;-60
2023/08/06 01:04:51;;;;;;;1.10;1.10;;;;;;;24.72;95.36;95735.31;5006249;28;20139;-59
2023/08/06 01:07:29;;;;;;;1.00;1.00;;;;;;;24.51;97.03;95728.06;5006339;28;20497;-59
2023/08/06 01:10:07;;;;;;;0.93;0.93;;;;;;;24.56;96.42;95718.06;5005034;28;20591;-59
2023/08/06 01:12:49;;;;;;;1.08;1.08;;;;;;;24.68;96.07;95720.59;5003418;28;20448;-60
2023/08/06 01:15:29;;;;;;;1.17;1.17;;;;;;;24.72;95.45;95720.38;5006305;28;20058;-60
2023/08/06 01:17:56;;;;;;;1.20;1.20;;;;;;;24.56;95.73;95701.09;5006216;28;20054;-61
2023/08/06 01:20:28;;;;;;;1.20;1.20;;;;;;;24.77;95.21;95709.13;5005647;28;20119;-60
2023/08/06 01:22:54;;;;;;;1.10;1.10;;;;;;;24.67;95.95;95702.06;5006188;28;20050;-62
2023/08/06 01:25:28;;;;;;;1.05;1.05;;;;;;;24.59;96.29;95700.88;5005883;28;20054;-60
2023/08/06 01:28:03;;;;;;;1.08;1.08;;;;;;;24.61;96.24;95692.66;5004428;28;20068;-62
2023/08/06 01:30:36;;;;;;;1.10;1.10;;;;;;;24.51;96.72;95685.59;5004292;28;20058;-59
2023/08/06 01:33:05;;;;;;;1.02;1.02;;;;;;;24.53;97.16;95725.50;4984595;28;20054;-59
2023/08/06 01:35:35;;;;;;;1.13;1.13;;;;;;;24.65;96.50;95687.56;4985817;28;20076;-59
2023/08/06 01:38:03;;;;;;;1.20;1.20;;;;;;;24.73;95.51;95677.41;4986479;28;20101;-59
2023/08/06 01:40:30;;;;;;;1.17;1.17;;;;;;;24.67;95.10;95655.94;4986079;28;20054;-58
2023/08/06 01:42:56;;;;;;;1.08;1.08;;;;;;;24.62;95.23;95660.25;4986236;28;20064;-59
2023/08/06 01:45:23;;;;;;;1.15;1.15;;;;;;;24.79;94.75;95668.97;4985752;28;20050;-58
2023/08/06 01:47:50;;;;;;;1.10;1.10;;;;;;;24.48;96.10;95655.44;4985829;28;20055;-59
2023/08/06 01:50:16;;;;;;;1.05;1.05;;;;;;;24.42;97.34;95674.38;4985720;28;20149;-59
2023/08/06 01:52:43;;;;;;;1.02;1.02;;;;;;;23.98;96.80;95583.22;4985737;28;20062;-59
2023/08/06 01:55:10;;;;;;;1.00;1.00;;;;;;;24.54;96.32;95684.59;5000824;28;20093;-59
2023/08/06 01:57:36;;;;;;;1.10;1.10;;;;;;;24.52;96.64;95689.19;4984447;28;20137;-59
2023/08/06 02:00:03;;;;;;;1.10;1.10;;;;;;;24.29;96.32;95642.03;4985851;28;20054;-60
2023/08/06 02:02:30;;;;;;;1.20;1.20;;;;;;;24.67;95.46;95685.06;4986015;28;20394;-58
2023/08/06 02:04:58;;;;;;;1.10;1.10;;;;;;;24.73;94.46;95677.41;4985783;28;20169;-59
2023/08/06 02:07:24;;;;;;;1.10;1.10;;;;;;;24.65;94.93;95667.75;4985751;28;20318;-58
2023/08/06 02:09:51;;;;;;;1.10;1.10;;;;;;;24.53;95.32;95663.19;4985098;28;20544;-59
2023/08/06 02:12:18;;;;;;;1.10;1.10;;;;;;;24.10;95.24;95599.09;4985422;28;20506;-59
2023/08/06 02:14:44;;;;;;;1.15;1.15;;;;;;;24.55;95.41;95671.97;4985405;28;20054;-58
2023/08/06 02:17:11;;;;;;;1.17;1.17;;;;;;;24.48;96.07;95665.97;4984817;28;20140;-59
2023/08/06 02:19:38;;;;;;;1.20;1.20;;;;;;;24.56;95.30;95653.75;4985465;28;20061;-60
2023/08/06 02:22:05;;;;;;;1.13;1.13;;;;;;;24.58;95.22;95658.91;4984928;28;20050;-59
2023/08/06 02:24:32;;;;;;;1.00;1.00;;;;;;;24.58;95.35;95679.47;5000211;28;20137;-60
2023/08/06 02:26:58;;;;;;;1.10;1.10;;;;;;;24.57;95.38;95675.09;4984686;28;20780;-59
2023/08/06 02:29:25;;;;;;;1.20;1.20;;;;;;;24.56;95.39;95673.56;4985312;28;20100;-62
2023/08/06 02:31:52;;;;;;;1.15;1.15;;;;;;;24.49;95.65;95679.63;4995169;28;20045;-59
2023/08/06 02:34:19;;;;;;;1.10;1.10;;;;;;;24.62;94.55;95676.44;5002957;28;20140;-59
2023/08/06 02:36:46;;;;;;;1.08;1.08;;;;;;;24.81;93.74;95686.25;5004416;28;20049;-60
2023/08/06 02:39:12;;;;;;;1.08;1.08;;;;;;;24.79;93.29;95686.75;5004551;28;20054;-60
2023/08/06 02:41:39;;;;;;;1.10;1.10;;;;;;;24.79;93.16;95669.75;5004758;28;20107;-60
2023/08/06 02:44:06;;;;;;;0.90;0.90;;;;;;;24.71;93.85;95668.63;5004914;28;20061;-59
2023/08/06 02:46:32;;;;;;;1.10;1.10;;;;;;;24.61;93.75;95644.50;5002927;28;20056;-60
2023/08/06 02:48:59;;;;;;;1.10;1.10;;;;;;;24.61;94.60;95672.81;5004031;28;20437;-61
2023/08/06 02:51:26;;;;;;;1.10;1.10;;;;;;;24.65;94.28;95670.56;5004321;28;20053;-59
2023/08/06 02:53:52;;;;;;;0.90;0.90;;;;;;;24.46;94.92;95657.97;5003858;28;20057;-60
2023/08/06 02:56:19;;;;;;;1.10;1.10;;;;;;;24.53;94.50;95668.88;5003664;28;20053;-59
2023/08/06 02:58:46;;;;;;;1.13;1.13;;;;;;;24.35;96.72;95662.69;5004028;28;20452;-59
2023/08/06 03:01:12;;;;;;;1.00;1.00;;;;;;;24.45;95.62;95662.09;5004032;28;20444;-62
2023/08/06 03:03:39;;;;;;;0.90;0.90;;;;;;;24.34;96.09;95650.63;5004506;28;20100;-60
2023/08/06 03:06:06;;;;;;;1.08;1.08;;;;;;;24.13;97.48;95646.19;5003844;28;20058;-60
2023/08/06 03:08:32;;;;;;;1.00;1.00;;;;;;;24.32;97.00;95658.81;5002465;28;20112;-59
2023/08/06 03:10:59;;;;;;;1.10;1.10;;;;;;;24.35;96.91;95655.00;5003890;28;20053;-59
2023/08/06 03:13:26;;;;;;;1.10;1.10;;;;;;;24.25;97.01;95653.56;5004050;28;20068;-61
2023/08/06 03:15:57;;;;;;;1.00;1.00;;;;;;;24.38;96.68;95662.50;5003583;28;20056;-58
2023/08/06 03:18:25;;;;;;;1.17;1.17;;;;;;;24.26;95.39;95621.19;5004329;28;20056;-60
2023/08/06 03:20:53;;;;;;;1.10;1.10;;;;;;;24.08;96.14;95610.13;5004637;28;20052;-59
2023/08/06 03:23:19;;;;;;;1.10;1.10;;;;;;;24.52;95.39;95655.19;5004064;28;20054;-63
2023/08/06 03:25:47;;;;;;;1.10;1.10;;;;;;;24.60;95.08;95657.13;5003501;28;20058;-60
2023/08/06 03:28:14;;;;;;;1.20;1.20;;;;;;;24.50;95.62;95641.53;5001769;28;20066;-60
2023/08/06 03:30:40;;;;;;;1.20;1.20;;;;;;;24.53;95.24;95660.38;5002310;28;20532;-63
2023/08/06 03:33:07;;;;;;;1.00;1.00;;;;;;;24.64;94.70;95635.03;5018706;28;20054;-59
2023/08/06 03:35:34;;;;;;;0.90;0.90;;;;;;;24.65;94.24;95636.59;5006578;28;20057;-60
2023/08/06 03:38:01;;;;;;;1.10;1.10;;;;;;;24.57;94.40;95641.13;5008083;28;20523;-59
2023/08/06 03:40:28;;;;;;;1.17;1.17;;;;;;;24.53;95.10;95640.53;5007245;28;20054;-60
2023/08/06 03:42:54;;;;;;;1.00;1.00;;;;;;;24.50;95.40;95641.53;5007926;28;20097;-60
2023/08/06 03:45:21;;;;;;;1.00;1.00;;;;;;;24.48;95.35;95641.28;5022237;28;20156;-60
2023/08/06 03:47:47;;;;;;;1.10;1.10;;;;;;;24.53;95.07;95639.78;5007741;28;20046;-61
2023/08/06 03:50:14;;;;;;;1.00;1.00;;;;;;;24.28;94.08;95578.97;5007535;28;20085;-60
2023/08/06 03:52:41;;;;;;;1.13;1.13;;;;;;;24.49;95.04;95640.00;5007488;28;20054;-60
2023/08/06 03:55:08;;;;;;;1.10;1.10;;;;;;;24.47;95.54;95648.19;5007071;28;20127;-61
2023/08/06 03:57:34;;;;;;;1.00;1.00;;;;;;;24.66;94.47;95652.34;5007385;28;20144;-60
2023/08/06 04:00:03;;;;;;;1.20;1.20;;;;;;;24.71;93.50;95651.63;5007352;28;20041;-62
2023/08/06 04:02:29;;;;;;;1.10;1.10;;;;;;;24.82;93.32;95656.63;5022145;28;20432;-59
2023/08/06 04:04:56;;;;;;;1.13;1.13;;;;;;;24.77;92.38;95621.31;5007060;28;20058;-59
2023/08/06 04:07:23;;;;;;;1.13;1.13;;;;;;;23.17;91.37;95355.38;5007140;28;20100;-59
2023/08/06 04:09:55;;;;;;;1.10;1.10;;;;;;;25.03;91.67;95644.78;5022160;28;20495;-60
2023/08/06 04:12:21;;;;;;;1.13;1.13;;;;;;;25.05;91.19;95633.72;5007254;28;20042;-59
2023/08/06 04:14:49;;;;;;;1.10;1.10;;;;;;;25.15;90.45;95646.44;5007482;28;20049;-60
2023/08/06 04:17:16;;;;;;;1.00;1.00;;;;;;;25.17;89.72;95638.22;5007347;28;20057;-61
2023/08/06 04:19:43;;;;;;;1.08;1.08;;;;;;;24.96;91.45;95642.38;5007157;28;20053;-60
2023/08/06 04:22:09;;;;;;;1.00;1.00;;;;;;;25.08;90.67;95646.13;5007026;28;20046;-60
2023/08/06 04:24:36;;;;;;;1.20;1.20;;;;;;;24.70;91.61;95607.59;5007008;28;20057;-60
2023/08/06 04:27:03;;;;;;;1.02;1.02;;;;;;;24.86;92.30;95635.34;5006534;28;20065;-60
2023/08/06 04:29:30;;;;;;;1.20;1.20;;;;;;;24.89;91.65;95634.34;5006825;28;20057;-61
2023/08/06 04:31:57;;;;;;;1.20;1.20;;;;;;;24.79;91.37;95618.75;5006542;28;20054;-59
2023/08/06 04:34:23;;;;;;;1.13;1.13;;;;;;;24.98;91.35;95625.66;5006554;28;20136;-60
2023/08/06 04:36:50;;;;;;;1.10;1.10;;;;;;;25.01;90.73;95624.66;5004761;28;20072;-62
2023/08/06 04:39:17;;;;;;;1.08;1.08;;;;;;;24.48;89.98;95547.06;5006214;28;20050;-60
2023/08/06 04:41:44;;;;;;;1.20;1.20;;;;;;;25.14;89.41;95605.22;5006774;28;20398;-61
2023/08/06 04:44:10;;;;;;;1.05;1.05;;;;;;;25.08;89.60;95612.13;5006529;28;20104;-61
2023/08/06 04:46:37;;;;;;;1.10;1.10;;;;;;;25.26;88.76;95611.75;5004658;28;20050;-60
2023/08/06 04:49:04;;;;;;;1.10;1.10;;;;;;;25.10;88.59;95596.16;5005993;28;20532;-59
2023/08/06 04:51:30;;;;;;;1.20;1.20;;;;;;;24.87;88.61;95563.22;5005537;28;20060;-59
2023/08/06 04:53:57;;;;;;;1.10;1.10;;;;;;;25.27;87.74;95625.44;5006325;28;20513;-59
2023/08/06 04:56:24;;;;;;;1.30;1.30;;;;;;;25.37;87.58;95625.31;5004753;28;20064;-59
2023/08/06 04:58:51;;;;;;;1.10;1.10;;;;;;;25.29;87.88;95617.19;5004748;28;20050;-61
2023/08/06 05:01:18;;;;;;;1.15;1.15;;;;;;;25.22;88.05;95623.34;5005876;28;20306;-59
2023/08/06 05:03:47;;;;;;;0.90;0.90;;;;;;;25.08;89.20;95624.22;5006654;28;20232;-60
2023/08/06 05:06:13;;;;;;;1.15;1.15;;;;;;;25.45;87.04;95624.31;5004131;28;20137;-59
2023/08/06 05:08:40;;;;;;;1.20;1.20;;;;;;;25.57;86.98;95608.19;5006263;28;20060;-59
2023/08/06 05:11:07;;;;;;;1.20;1.20;;;;;;;25.66;85.97;95611.63;5005279;28;20064;-59
2023/08/06 05:13:33;;;;;;;1.10;1.10;;;;;;;25.66;85.83;95608.00;5005732;28;20073;-60
2023/08/06 05:16:00;;;;;;;1.15;1.15;;;;;;;25.82;85.25;95610.19;5005552;28;20065;-59
2023/08/06 05:18:27;;;;;;;1.40;1.40;;;;;;;25.68;85.55;95622.47;5006039;28;20046;-61
2023/08/06 05:20:54;;;;;;;1.20;1.20;;;;;;;25.40;87.33;95610.13;5005621;28;20074;-59
2023/08/06 05:23:20;;;;;;;1.05;1.05;;;;;;;25.45;86.95;95617.91;5005372;28;20054;-60
2023/08/06 05:25:47;;;;;;;1.10;1.10;;;;;;;25.06;88.48;95626.00;5020265;28;20045;-58
2023/08/06 05:28:13;;;;;;;1.20;1.20;;;;;;;24.97;89.38;95615.63;5005079;28;20068;-59
2023/08/06 05:30:41;;;;;;;1.10;1.10;;;;;;;24.96;90.67;95616.88;5020294;28;20056;-60
2023/08/06 05:33:08;;;;;;;1.20;1.20;;;;;;;25.18;89.08;95617.09;5005308;28;20049;-60
2023/08/06 05:35:35;;;;;;;1.30;1.30;;;;;;;25.10;88.39;95595.41;5005340;28;20552;-60
2023/08/06 05:38:01;;;;;;;1.10;1.10;;;;;;;25.26;88.78;95615.38;5005617;28;20056;-60
2023/08/06 05:40:28;;;;;;;1.17;1.17;;;;;;;25.32;88.03;95613.38;5003851;28;20053;-61
2023/08/06 05:42:55;;;;;;;1.20;1.20;;;;;;;25.28;87.58;95592.97;5005638;28;20058;-61
2023/08/06 05:45:21;;;;;;;1.17;1.17;;;;;;;25.27;87.36;95591.44;5004860;28;20057;-60
2023/08/06 05:47:49;;;;;;;1.17;1.17;;;;;;;25.48;87.05;95605.56;5005663;28;20084;-60
2023/08/06 05:50:15;;;;;;;1.40;1.40;;;;;;;25.60;86.08;95613.63;4995660;28;20083;-70
2023/08/06 05:52:43;;;;;;;1.20;1.20;;;;;;;25.81;84.96;95600.91;5001836;28;20552;-69
2023/08/06 05:55:10;;;;;;;1.30;1.30;;;;;;;25.77;84.88;95610.91;5001600;28;20053;-68
2023/08/06 05:57:36;;;;;;;1.30;1.30;;;;;;;25.62;84.64;95577.06;5003369;28;20085;-71
2023/08/06 06:00:06;;;;;;;1.30;1.30;;;;;;;25.55;85.75;95588.06;5004261;28;20046;-69
2023/08/06 06:02:32;;;;;;;1.50;1.50;;;;;;;25.89;84.21;95598.38;5001991;28;20116;-68
2023/08/06 06:04:59;;;;;;;1.10;1.10;;;;;;;26.12;83.12;95598.03;5004655;28;20052;-68
2023/08/06 06:07:26;;;;;;;1.33;1.33;;;;;;;25.73;83.94;95548.75;5004467;28;20049;-68
2023/08/06 06:09:52;;;;;;;1.30;1.30;;;;;;;26.22;82.82;95578.72;5004556;28;20451;-67
2023/08/06 06:12:19;;;;;;;1.23;1.23;;;;;;;26.57;80.59;95570.63;5003949;28;20085;-67
2023/08/06 06:14:46;;;;;;;1.40;1.40;;;;;;;26.76;79.61;95571.75;5003678;28;20491;-67
2023/08/06 06:17:13;;;;;;;1.40;1.40;;;;;;;26.77;79.33;95573.28;5004069;28;20576;-67
2023/08/06 06:19:39;;;;;;;1.60;1.60;;;;;;;26.72;79.10;95585.41;5004092;28;20440;-66
2023/08/06 06:22:06;;;;;;;1.40;1.40;;;;;;;26.82;78.56;95581.06;5004084;28;20054;-67
2023/08/06 06:24:33;;;;;;;1.45;1.45;;;;;;;26.48;78.68;95542.44;5002835;28;20058;-69
2023/08/06 06:27:00;;;;;;;1.30;1.30;;;;;;;26.63;78.85;95591.31;5004018;28;20054;-67
2023/08/06 06:29:26;;;;;;;1.33;1.33;;;;;;;26.53;79.21;95598.47;5003973;28;20426;-67
2023/08/06 06:31:53;;;;;;;1.45;1.45;;;;;;;26.70;78.98;95610.72;5005358;28;20487;-68
2023/08/06 06:34:20;;;;;;;1.30;1.30;;;;;;;26.69;78.42;95612.00;5004827;28;20061;-67
2023/08/06 06:36:47;;;;;;;1.30;1.30;;;;;;;26.29;78.05;95538.47;5004308;28;20077;-67
2023/08/06 06:39:15;;;;;;;1.40;1.40;;;;;;;26.28;79.44;95593.72;5004653;28;20046;-69
2023/08/06 06:41:44;;;;;;;1.50;1.50;;;;;;;26.36;79.81;95623.97;5004312;28;20058;-68
2023/08/06 06:44:10;;;;;;;1.40;1.40;;;;;;;26.42;79.68;95624.00;5004481;28;20536;-68
2023/08/06 06:46:37;;;;;;;1.38;1.38;;;;;;;26.37;78.58;95579.31;5003846;28;20045;-67
2023/08/06 06:49:04;;;;;;;1.30;1.30;;;;;;;26.39;79.58;95605.13;5002468;28;20053;-67
2023/08/06 06:51:31;;;;;;;1.35;1.35;;;;;;;26.57;79.21;95624.59;5002494;28;20141;-68
2023/08/06 06:53:58;;;;;;;1.30;1.30;;;;;;;25.57;83.82;95619.53;5004172;28;20057;-67
2023/08/06 06:56:25;;;;;;;1.27;1.27;;;;;;;25.46;84.95;95608.09;5004038;28;20259;-70
2023/08/06 06:58:51;;;;;;;1.00;1.00;;;;;;;25.28;86.62;95615.66;5002516;28;20073;-68
2023/08/06 07:01:18;;;;;;;1.30;1.30;;;;;;;25.53;85.84;95625.44;5004133;28;20421;-68
2023/08/06 07:03:45;;;;;;;1.10;1.10;;;;;;;25.34;87.79;95637.66;5003956;28;20115;-66
2023/08/06 07:06:12;;;;;;;1.10;1.10;;;;;;;24.54;91.15;95582.66;5003593;28;20085;-67
2023/08/06 07:08:39;;;;;;;1.17;1.17;;;;;;;24.53;95.69;95654.69;5018095;28;20520;-71
2023/08/06 07:11:06;;;;;;;1.10;1.10;;;;;;;24.20;100.00;95662.00;5003243;28;20385;-69
2023/08/06 07:13:36;;;;;;;1.00;1.00;;;;;;;23.84;100.00;95644.19;5003857;28;20417;-69
2023/08/06 07:16:03;;;;;;;1.00;1.00;;;;;;;23.89;100.00;95694.44;5003480;28;20058;-69
2023/08/06 07:18:30;;;;;;;1.20;1.20;;;;;;;23.92;100.00;95692.66;5004374;28;21283;-69
2023/08/06 07:20:56;;;;;;;1.00;1.00;;;;;;;23.45;100.00;95676.72;5003780;28;20512;-64
2023/08/06 07:23:25;;;;;;;0.93;0.93;;;;;;;22.95;100.00;95626.97;5004282;28;20049;-70
2023/08/06 07:25:52;;;;;;;0.90;0.90;;;;;;;22.88;100.00;95570.88;5003609;28;20060;-71
2023/08/06 07:28:19;;;;;;;0.98;0.98;;;;;;;23.10;100.00;95621.34;5003484;28;20064;-70
2023/08/06 07:30:46;;;;;;;1.00;1.00;;;;;;;22.84;100.00;95614.72;5003834;28;20155;-69
2023/08/06 07:33:13;;;;;;;1.00;1.00;;;;;;;23.00;100.00;95617.06;5003916;28;20058;-67
2023/08/06 07:35:40;;;;;;;1.00;1.00;;;;;;;23.07;100.00;95627.97;5003337;28;20073;-69
2023/08/06 07:38:06;;;;;;;0.90;0.90;;;;;;;22.85;100.00;95633.19;5003368;28;20072;-67
2023/08/06 07:40:35;;;;;;;0.90;0.90;;;;;;;22.89;100.00;95639.44;5002303;28;20132;-67
2023/08/06 07:43:02;;;;;;;0.90;0.90;;;;;;;23.12;100.00;95630.09;5003682;28;20050;-67
2023/08/06 07:45:33;;;;;;;1.00;1.00;;;;;;;23.13;100.00;95614.72;5003769;28;20058;-67
2023/08/06 07:47:59;;;;;;;1.00;1.00;;;;;;;23.29;100.00;95622.72;5003521;28;20050;-66
2023/08/06 07:50:26;;;;;;;0.90;0.90;;;;;;;23.42;100.00;95614.72;5004005;28;20110;-67
2023/08/06 07:52:53;;;;;;;1.10;1.10;;;;;;;23.51;100.00;95603.31;5003996;28;20045;-67
2023/08/06 07:55:19;;;;;;;0.90;0.90;;;;;;;23.09;100.00;95571.75;5002175;28;20737;-68
2023/08/06 07:57:46;;;;;;;0.90;0.90;;;;;;;23.51;100.00;95620.28;5001883;28;20058;-67
2023/08/06 08:00:13;;;;;;;0.90;0.90;;;;;;;22.56;100.00;95418.66;5003511;28;20108;-66
2023/08/06 08:02:40;;;;;;;0.98;0.98;;;;;;;23.77;100.00;95578.78;5003430;28;20542;-67
2023/08/06 08:05:08;;;;;;;0.93;0.93;;;;;;;23.93;100.00;95592.41;5018391;28;20058;-66
2023/08/06 08:07:34;;;;;;;1.05;1.05;;;;;;;23.93;100.00;95592.41;5003647;28;20489;-67
2023/08/06 08:10:01;;;;;;;1.02;1.02;;;;;;;24.08;100.00;95586.69;5003405;28;20141;-67
2023/08/06 08:12:28;;;;;;;1.13;1.13;;;;;;;24.52;100.00;95588.03;5018085;28;20533;-66
2023/08/06 08:14:54;;;;;;;1.20;1.20;;;;;;;24.92;100.00;95582.34;5003993;28;20053;-66
2023/08/06 08:17:21;;;;;;;1.10;1.10;;;;;;;25.27;100.00;95584.97;5001805;28;20167;-65
2023/08/06 08:19:48;;;;;;;1.10;1.10;;;;;;;25.65;100.00;95592.28;5003124;28;20157;-66
2023/08/06 08:22:15;;;;;;;1.30;1.30;;;;;;;26.01;100.00;95563.91;5005039;28;20070;-67
2023/08/06 08:24:41;;;;;;;1.50;1.50;;;;;;;26.49;100.00;95563.88;5006730;28;20050;-66
2023/08/06 08:27:08;;;;;;;1.40;1.40;;;;;;;26.98;99.97;95583.16;5006280;28;20058;-65
2023/08/06 08:29:35;;;;;;;1.42;1.42;;;;;;;25.56;92.32;95284.09;5021944;28;20080;-65
2023/08/06 08:32:01;;;;;;;1.80;1.80;;;;;;;28.00;92.47;95582.19;5006471;28;20052;-65
2023/08/06 08:34:28;;;;;;;1.60;1.60;;;;;;;28.47;86.22;95590.88;5006852;28;20057;-66
2023/08/06 08:36:55;;;;;;;1.70;1.70;;;;;;;28.53;84.42;95583.09;5006547;28;20057;-66
2023/08/06 08:39:22;;;;;;;1.60;1.60;;;;;;;28.66;81.30;95580.47;5007092;28;20145;-66
2023/08/06 08:41:49;;;;;;;1.58;1.58;;;;;;;29.11;78.97;95576.88;5006598;28;20058;-67
2023/08/06 08:44:17;;;;;;;1.90;1.90;;;;;;;29.16;77.58;95561.03;5005384;28;20046;-67
2023/08/06 08:46:45;;;;;;;1.70;1.70;;;;;;;28.98;76.29;95555.91;5005113;28;20112;-65
2023/08/06 08:49:11;;;;;;;1.75;1.75;;;;;;;28.85;79.29;95539.41;5006554;28;20508;-67
2023/08/06 08:51:38;;;;;;;1.95;1.95;;;;;;;28.98;79.00;95533.09;5021346;28;20056;-67
2023/08/06 08:54:07;;;;;;;1.60;1.60;;;;;;;28.93;83.84;95522.50;5006434;28;20053;-66
2023/08/06 08:56:35;;;;;;;1.75;1.75;;;;;;;28.73;81.05;95488.69;5006366;28;20119;-66
2023/08/06 08:59:02;;;;;;;1.75;1.75;;;;;;;29.21;77.36;95523.13;5006076;28;20081;-66
2023/08/06 09:01:29;;;;;;;1.50;1.50;;;;;;;29.19;75.13;95526.50;5006166;28;20057;-69
2023/08/06 09:03:57;;;;;;;1.60;1.60;;;;;;;28.99;74.86;95540.38;5004909;28;20053;-66
2023/08/06 09:06:27;;;;;;;1.90;1.90;;;;;;;29.31;77.46;95544.28;5005950;28;20116;-65
2023/08/06 09:09:06;;;;;;;1.65;1.65;;;;;;;29.60;70.01;95560.66;5006307;28;20057;-67
2023/08/06 09:11:40;;;;;;;1.70;1.70;;;;;;;29.91;66.24;95568.72;5004546;28;20149;-66
2023/08/06 09:14:08;;;;;;;1.33;1.33;;;;;;;30.53;66.03;95573.28;5004826;28;20119;-67
2023/08/06 09:16:35;;;;;;;2.00;2.00;;;;;;;30.99;62.80;95580.75;5006159;28;20115;-67
2023/08/06 09:19:10;;;;;;;1.90;1.90;;;;;;;31.09;58.70;95543.94;5005849;28;20107;-66
2023/08/06 09:21:39;;;;;;;1.67;1.67;;;;;;;31.55;61.27;95577.88;5005734;28;20085;-68
2023/08/06 09:24:10;;;;;;;1.67;1.67;;;;;;;31.55;57.46;95557.84;5006062;28;20050;-67
2023/08/06 09:26:41;;;;;;;1.67;1.67;;;;;;;31.92;56.83;95546.28;5020573;28;20054;-67
2023/08/06 09:29:11;;;;;;;1.80;1.80;;;;;;;31.63;55.70;95542.31;5005584;28;20081;-66
2023/08/06 09:31:44;;;;;;;1.77;1.77;;;;;;;31.12;56.79;95519.97;5004268;28;20058;-67
2023/08/06 09:34:14;;;;;;;1.55;1.55;;;;;;;31.14;58.86;95503.03;5005376;28;20062;-67
2023/08/06 09:36:42;;;;;;;1.95;1.95;;;;;;;31.09;59.43;95515.34;5005326;28;20144;-71
2023/08/06 09:39:14;;;;;;;1.67;1.67;;;;;;;30.69;57.33;95535.13;5005734;28;20101;-67
2023/08/06 09:41:42;;;;;;;1.90;1.90;;;;;;;30.62;58.75;95592.91;5005844;28;20058;-68
2023/08/06 09:44:19;;;;;;;1.77;1.77;;;;;;;29.47;56.75;95620.44;5005408;28;20077;-68
2023/08/06 09:46:49;;;;;;;1.60;1.60;;;;;;;27.57;59.32;95615.06;5003569;28;20056;-66
2023/08/06 09:49:18;;;;;;;1.40;1.40;;;;;;;25.55;66.94;95605.06;5005288;28;20424;-66
2023/08/06 09:51:50;;;;;;;1.35;1.35;;;;;;;24.53;71.41;95603.72;5004677;28;20124;-66
2023/08/06 09:54:19;;;;;;;1.20;1.20;;;;;;;23.80;75.33;95606.09;5005376;28;20046;-66
2023/08/06 09:56:54;;;;;;;1.00;1.00;;;;;;;22.31;89.47;95618.25;5005182;28;20097;-66
2023/08/06 09:59:23;;;;;;;1.00;1.00;;;;;;;21.26;97.42;95623.47;5005267;28;20056;-66
2023/08/06 10:01:51;;;;;;;0.90;0.90;;;;;;;20.57;100.00;95611.41;5004968;28;20081;-67
2023/08/06 10:04:20;;;;;;;0.90;0.90;;;;;;;20.05;100.00;95620.91;5003771;28;20065;-66
2023/08/06 10:06:52;;;;;;;0.70;0.70;;;;;;;20.07;100.00;95691.50;5005119;28;20046;-66
2023/08/06 10:09:20;;;;;;;0.90;0.90;;;;;;;19.86;100.00;95636.16;5019823;28;20468;-64
2023/08/06 10:11:52;;;;;;;0.90;0.90;;;;;;;19.82;100.00;95631.94;5004879;28;20149;-64
2023/08/06 10:14:26;;;;;;;0.80;0.80;;;;;;;19.93;100.00;95632.28;5003757;28;20052;-63
2023/08/06 10:16:54;;;;;;;0.70;0.70;;;;;;;19.74;100.00;95616.63;5004632;28;20053;-64
2023/08/06 10:19:21;;;;;;;0.80;0.80;;;;;;;20.13;100.00;95644.66;5004832;28;20504;-63
2023/08/06 10:22:13;;;;;;;0.70;0.70;;;;;;;20.25;100.00;95651.44;5004909;28;20540;-64
2023/08/06 10:24:57;;;;;;;0.90;0.90;;;;;;;20.31;100.00;95638.31;5020064;28;20058;-64
2023/08/06 10:27:33;;;;;;;0.75;0.75;;;;;;;20.60;100.00;95632.97;5004422;28;20145;-65
2023/08/06 10:30:31;;;;;;;0.80;0.80;;;;;;;21.08;100.00;95640.44;5004684;28;20081;-64
2023/08/06 10:33:00;;;;;;;0.70;0.70;;;;;;;21.07;100.00;95599.44;4999574;28;20513;-66
2023/08/06 10:35:50;;;;;;;0.90;0.90;;;;;;;21.66;100.00;95652.13;4984938;28;20102;-64
2023/08/06 10:38:22;;;;;;;0.77;0.77;;;;;;;21.71;100.00;95659.16;4999329;28;20070;-65
2023/08/06 10:41:01;;;;;;;0.90;0.90;;;;;;;21.92;100.00;95647.66;4984945;28;20056;-64
2023/08/06 10:43:29;;;;;;;0.90;0.90;;;;;;;22.48;100.00;95650.41;4984720;28;20066;-64
2023/08/06 10:45:59;;;;;;;0.90;0.90;;;;;;;22.85;100.00;95644.50;4984791;28;20072;-64
2023/08/06 10:48:44;;;;;;;1.00;1.00;;;;;;;23.46;100.00;95633.03;4983278;28;20054;-64
2023/08/06 10:51:13;;;;;;;1.00;1.00;;;;;;;23.66;93.70;95635.19;4983054;28;20065;-63
2023/08/06 10:53:44;;;;;;;1.00;1.00;;;;;;;22.81;97.04;95638.28;4984694;28;20406;-61
2023/08/06 10:56:15;;;;;;;0.90;0.90;;;;;;;22.91;100.00;95656.69;4982759;28;20058;-62
2023/08/06 10:58:43;;;;;;;1.00;1.00;;;;;;;23.46;100.00;95598.34;4968760;28;20191;-62
2023/08/06 11:01:10;;;;;;;1.10;1.10;;;;;;;24.19;100.00;95593.28;4984058;28;20145;-63
2023/08/06 11:03:38;;;;;;;1.20;1.20;;;;;;;24.77;93.38;95615.63;4984480;28;20066;-63
2023/08/06 11:06:08;;;;;;;1.02;1.02;;;;;;;24.99;94.68;95627.22;4984505;28;20103;-65
2023/08/06 11:08:36;;;;;;;1.10;1.10;;;;;;;25.11;84.25;95639.44;4983983;28;20238;-65
2023/08/06 11:11:12;;;;;;;0.95;0.95;;;;;;;25.26;81.37;95618.22;4984381;28;20458;-62
2023/08/06 11:13:40;;;;;;;1.17;1.17;;;;;;;25.57;83.93;95647.91;4984390;28;20050;-63
2023/08/06 11:16:08;;;;;;;1.10;1.10;;;;;;;25.36;80.95;95618.06;4982947;28;20134;-64
2023/08/06 11:18:35;;;;;;;1.40;1.40;;;;;;;25.93;82.38;95653.63;4983988;28;20073;-64
2023/08/06 11:21:02;;;;;;;1.60;1.60;;;;;;;26.34;83.74;95652.09;4984514;28;20065;-65
2023/08/06 11:23:29;;;;;;;1.30;1.30;;;;;;;26.40;76.59;95646.44;4999245;28;20133;-65
2023/08/06 11:25:57;;;;;;;1.45;1.45;;;;;;;26.40;80.20;95615.19;4983873;28;20458;-64
2023/08/06 11:28:24;;;;;;;1.42;1.42;;;;;;;27.02;75.80;95657.59;4984281;28;20141;-61
2023/08/06 11:30:51;;;;;;;1.30;1.30;;;;;;;27.19;70.32;95649.88;4984152;28;20517;-66
2023/08/06 11:33:22;;;;;;;1.48;1.48;;;;;;;27.41;68.60;95677.63;4996648;28;20062;-66
2023/08/06 11:35:49;;;;;;;1.60;1.60;;;;;;;27.48;65.05;95660.84;5003897;28;20053;-64